Time;durP1;ratioP1;P1;durP2;ratioP2;P2;SDS_P1;SDS_P2;PMS_P1;PMS_P2;Temp;Humidity;BMP_temperature;BMP_pressure;BME280_temperature;BME280_humidity;BME280_pressure;Samples;Min_cycle;Max_cycle;Signal;HPM_P1;HPM_P2
2023/12/11 00:04:58;;;;;;;6.78;1.65;;;;;;;18.90;42.70;99956.78;16115540;19;131129;-53
2023/12/11 00:10:20;;;;;;;8.57;1.98;;;;;;;18.88;42.64;99950.72;16116293;19;134596;-46
2023/12/11 00:15:43;;;;;;;8.60;2.45;;;;;;;18.87;42.61;99956.50;16112910;19;130593;-50
2023/12/11 00:21:06;;;;;;;10.73;2.75;;;;;;;18.86;42.40;99965.91;16115006;19;131574;-49
2023/12/11 00:26:28;;;;;;;9.50;2.40;;;;;;;18.84;42.24;99979.22;16113297;19;129461;-48
2023/12/11 00:31:50;;;;;;;8.40;2.63;;;;;;;18.83;42.16;99967.31;16117206;19;131312;-45
2023/12/11 00:37:12;;;;;;;9.20;2.30;;;;;;;18.81;42.17;99963.16;16117250;19;130251;-47
2023/12/11 00:42:34;;;;;;;8.40;2.28;;;;;;;18.78;42.31;99956.19;16116640;19;131463;-45
2023/12/11 00:47:56;;;;;;;11.95;2.67;;;;;;;18.77;42.43;99951.75;16115621;19;129852;-48
2023/12/11 00:53:18;;;;;;;10.93;2.50;;;;;;;18.75;42.45;99954.81;16116206;19;130902;-49
2023/12/11 00:58:40;;;;;;;13.55;3.10;;;;;;;18.73;42.32;99945.94;16112805;19;132260;-53
2023/12/11 01:04:03;;;;;;;11.75;2.60;;;;;;;18.72;41.97;99955.34;16115400;19;129716;-46
2023/12/11 01:09:25;;;;;;;11.77;3.00;;;;;;;18.70;42.29;99954.81;16113069;19;129610;-48
2023/12/11 01:14:47;;;;;;;9.65;2.40;;;;;;;18.69;42.36;99949.50;16114467;19;130586;-50
2023/12/11 01:20:09;;;;;;;7.25;2.03;;;;;;;18.68;42.30;99939.53;16108579;19;130384;-49
2023/12/11 01:25:31;;;;;;;8.25;2.33;;;;;;;18.65;42.44;99937.28;16111059;19;129464;-51
2023/12/11 01:30:53;;;;;;;7.60;2.55;;;;;;;18.64;42.21;99933.69;16107522;19;130319;-47
2023/12/11 01:36:15;;;;;;;10.68;2.30;;;;;;;18.62;41.87;99922.06;16105054;19;135533;-47
2023/12/11 01:41:38;;;;;;;15.48;3.15;;;;;;;18.62;42.02;99910.97;16107157;19;129667;-47
2023/12/11 01:47:00;;;;;;;11.55;2.58;;;;;;;18.59;41.86;99912.34;16108447;19;129761;-53
2023/12/11 01:52:22;;;;;;;12.68;2.63;;;;;;;18.57;41.96;99897.13;16110235;19;129661;-47
2023/12/11 01:57:44;;;;;;;9.43;2.55;;;;;;;18.56;41.91;99881.59;16109034;19;130330;-53
2023/12/11 02:03:08;;;;;;;12.73;3.05;;;;;;;18.55;42.15;99888.25;16107685;19;129339;-46
2023/12/11 02:08:30;;;;;;;10.70;2.60;;;;;;;18.52;42.23;99895.16;16104221;19;129877;-49
2023/12/11 02:13:52;;;;;;;10.73;2.85;;;;;;;18.53;42.17;99896.00;16103973;19;130515;-45
2023/12/11 02:19:14;;;;;;;11.38;3.03;;;;;;;18.50;42.01;99885.44;16109117;19;130200;-47
2023/12/11 02:24:42;;;;;;;10.80;2.55;;;;;;;18.51;42.08;99887.97;16110400;19;129629;-48
2023/12/11 02:30:05;;;;;;;12.25;2.28;;;;;;;18.49;41.83;99875.47;16102926;19;129525;-48
2023/12/11 02:35:26;;;;;;;9.00;2.50;;;;;;;18.45;41.84;99862.19;16108083;19;130298;-46
2023/12/11 02:40:48;;;;;;;9.23;2.38;;;;;;;18.45;41.78;99851.09;16108158;19;130701;-48
2023/12/11 02:46:11;;;;;;;8.35;2.05;;;;;;;18.44;41.68;99846.66;16105392;19;131283;-49
2023/12/11 02:51:33;;;;;;;7.22;2.20;;;;;;;18.43;41.61;99831.16;16115661;19;129570;-48
2023/12/11 02:56:55;;;;;;;7.90;2.08;;;;;;;18.42;41.65;99832.25;16121477;19;129603;-51
2023/12/11 03:02:17;;;;;;;8.02;2.10;;;;;;;18.41;41.76;99811.22;16121348;19;129768;-52
2023/12/11 03:07:38;;;;;;;7.68;1.90;;;;;;;18.41;41.90;99816.75;16121338;19;130751;-51
2023/12/11 03:13:01;;;;;;;8.43;2.10;;;;;;;18.39;41.75;99824.47;16123138;19;134057;-47
2023/12/11 03:18:23;;;;;;;7.78;1.90;;;;;;;18.38;41.75;99822.78;16123878;19;129668;-46
2023/12/11 03:23:45;;;;;;;6.47;2.08;;;;;;;18.38;41.72;99827.50;16121720;19;129794;-51
2023/12/11 03:29:07;;;;;;;7.32;2.10;;;;;;;18.37;41.87;99815.56;16120891;19;131311;-48
2023/12/11 03:34:29;;;;;;;8.73;2.45;;;;;;;18.34;41.51;99838.25;16118520;19;130774;-47
2023/12/11 03:39:51;;;;;;;6.45;2.00;;;;;;;18.35;41.86;99828.84;16121142;19;130909;-49
2023/12/11 03:45:13;;;;;;;9.05;2.05;;;;;;;18.33;41.77;99828.31;16117157;19;131114;-52
2023/12/11 03:50:35;;;;;;;8.82;2.30;;;;;;;18.31;41.46;99813.91;16119124;19;129674;-46
2023/12/11 03:55:56;;;;;;;6.22;2.08;;;;;;;18.31;41.91;99819.44;16120257;19;130985;-47
2023/12/11 04:01:18;;;;;;;8.77;2.13;;;;;;;18.31;41.60;99822.22;16115051;19;130687;-49
2023/12/11 04:06:41;;;;;;;9.75;2.10;;;;;;;18.28;41.83;99814.44;16118571;19;130217;-47
2023/12/11 04:12:03;;;;;;;10.43;2.30;;;;;;;18.27;41.63;99815.53;16114062;19;130010;-50
2023/12/11 04:17:25;;;;;;;6.53;1.90;;;;;;;18.26;41.43;99808.34;16110371;19;129766;-51
2023/12/11 04:22:47;;;;;;;9.02;2.20;;;;;;;18.24;41.81;99796.69;16107316;19;130242;-49
2023/12/11 04:28:09;;;;;;;10.73;2.60;;;;;;;18.23;41.69;99806.97;16110843;19;130580;-51
2023/12/11 04:33:32;;;;;;;7.68;1.90;;;;;;;18.22;41.46;99799.75;16114826;19;130442;-51
2023/12/11 04:38:55;;;;;;;8.63;2.17;;;;;;;18.22;41.41;99787.84;16114636;19;129904;-51
2023/12/11 04:44:16;;;;;;;9.13;1.58;;;;;;;18.21;41.77;99794.50;16117190;19;129581;-45
2023/12/11 04:49:41;;;;;;;7.30;2.20;;;;;;;18.20;41.52;99781.75;16116925;19;129601;-50
2023/12/11 04:55:04;;;;;;;7.50;1.77;;;;;;;18.19;41.63;99769.03;16112097;19;129643;-49
2023/12/11 05:00:26;;;;;;;8.55;2.13;;;;;;;18.17;41.69;99766.50;16113889;19;131340;-48
2023/12/11 05:05:48;;;;;;;9.80;2.10;;;;;;;18.17;41.73;99776.75;16114233;19;129676;-48
2023/12/11 05:11:11;;;;;;;9.40;2.30;;;;;;;18.17;41.61;99782.28;16115143;19;129592;-50
2023/12/11 05:16:33;;;;;;;10.18;2.22;;;;;;;18.15;41.55;99779.81;16112122;19;129201;-49
2023/12/11 05:21:58;;;;;;;9.50;2.20;;;;;;;18.12;41.44;99770.09;16113834;19;129889;-46
2023/12/11 05:27:20;;;;;;;8.13;2.00;;;;;;;18.11;41.58;99779.50;16112902;19;135864;-49
2023/12/11 05:32:44;;;;;;;9.95;2.60;;;;;;;18.11;41.28;99787.78;16111165;19;131311;-49
2023/12/11 05:38:06;;;;;;;7.88;2.20;;;;;;;18.11;41.25;99789.75;16112064;19;131039;-45
2023/12/11 05:43:28;;;;;;;10.32;2.40;;;;;;;18.11;41.62;99795.28;16109207;19;129540;-48
2023/12/11 05:48:50;;;;;;;9.80;2.15;;;;;;;18.08;41.45;99791.13;16104407;19;131165;-48
2023/12/11 05:54:12;;;;;;;9.88;2.25;;;;;;;18.09;41.46;99797.47;16109286;19;130025;-47
2023/12/11 05:59:34;;;;;;;11.43;2.50;;;;;;;18.08;41.22;99795.81;16108744;19;129662;-50
2023/12/11 06:04:56;;;;;;;9.05;2.30;;;;;;;18.07;41.30;99789.47;16108770;19;130854;-46
2023/12/11 06:10:18;;;;;;;10.18;2.47;;;;;;;18.06;41.31;99790.56;16104476;19;130422;-45
2023/12/11 06:15:40;;;;;;;8.35;2.00;;;;;;;18.05;41.20;99786.13;16107948;19;132359;-48
2023/12/11 06:21:03;;;;;;;8.35;2.40;;;;;;;18.07;41.34;99791.38;16109471;19;131502;-48
2023/12/11 06:26:30;;;;;;;6.60;1.83;;;;;;;18.08;41.51;99806.88;16122583;19;130365;-49
2023/12/11 06:31:52;;;;;;;7.07;1.65;;;;;;;18.08;41.38;99817.97;16141127;19;129416;-44
2023/12/11 06:37:14;;;;;;;9.57;2.70;;;;;;;18.06;41.02;99809.94;16140370;19;130467;-48
2023/12/11 06:42:37;;;;;;;6.75;1.90;;;;;;;18.06;41.48;99821.00;16140412;19;131391;-49
2023/12/11 06:48:00;;;;;;;8.15;2.30;;;;;;;18.06;41.06;99818.25;16137582;19;130691;-46
2023/12/11 06:53:22;;;;;;;14.50;2.85;;;;;;;18.03;41.12;99821.53;16134509;19;129445;-50
2023/12/11 06:58:44;;;;;;;11.13;2.05;;;;;;;18.04;41.13;99827.88;16136249;19;129903;-46
2023/12/11 07:04:07;;;;;;;9.77;2.15;;;;;;;18.03;41.43;99827.06;16133837;19;130169;-48
2023/12/11 07:09:31;;;;;;;8.30;2.47;;;;;;;18.03;41.42;99834.56;16135664;19;131316;-46
2023/12/11 07:14:53;;;;;;;13.80;2.35;;;;;;;18.02;41.25;99827.34;16137017;19;130622;-47
2023/12/11 07:20:15;;;;;;;14.57;2.92;;;;;;;18.01;41.05;99845.88;16140222;19;130269;-47
2023/12/11 07:25:37;;;;;;;10.45;2.03;;;;;;;18.01;41.35;99868.00;16136359;19;129757;-46
2023/12/11 07:31:00;;;;;;;9.90;2.35;;;;;;;18.00;41.31;99882.94;16139698;19;129698;-44
2023/12/11 07:36:22;;;;;;;10.73;2.30;;;;;;;17.98;40.94;99890.69;16130207;19;129738;-46
2023/12/11 07:41:44;;;;;;;11.38;2.78;;;;;;;17.97;41.41;99909.22;16119852;19;129457;-46
2023/12/11 07:47:06;;;;;;;10.80;2.70;;;;;;;17.96;41.31;99915.88;16116299;19;131260;-48
2023/12/11 07:52:30;;;;;;;8.70;2.35;;;;;;;17.95;40.95;99927.22;16118430;19;129579;-45
2023/12/11 07:57:52;;;;;;;12.63;2.67;;;;;;;17.94;40.98;99944.91;16117451;19;131450;-48
2023/12/11 08:03:14;;;;;;;9.25;2.53;;;;;;;17.93;41.32;99941.28;16112370;19;130684;-47
2023/12/11 08:08:40;;;;;;;9.73;2.40;;;;;;;17.91;41.18;99951.78;16121340;19;133707;-47
2023/12/11 08:14:02;;;;;;;10.20;2.47;;;;;;;17.90;40.94;99960.38;16116369;19;129512;-50
2023/12/11 08:19:24;;;;;;;12.00;3.08;;;;;;;17.89;41.14;99975.28;16119176;19;129757;-45
2023/12/11 08:24:47;;;;;;;7.43;2.40;;;;;;;17.89;41.34;99989.13;16115989;19;129733;-46
2023/12/11 08:30:10;;;;;;;11.27;2.65;;;;;;;17.88;41.13;99996.63;16116492;19;130267;-50
2023/12/11 08:35:32;;;;;;;10.60;2.50;;;;;;;17.85;40.89;100020.09;16114279;19;129740;-47
2023/12/11 08:40:54;;;;;;;14.15;3.00;;;;;;;17.86;40.96;100023.72;16118144;19;130107;-47
2023/12/11 08:46:16;;;;;;;9.60;2.65;;;;;;;17.85;41.33;100030.34;16117120;19;129376;-47
2023/12/11 08:51:39;;;;;;;10.60;2.60;;;;;;;17.84;41.14;100045.25;16116603;19;129275;-48
2023/12/11 08:57:01;;;;;;;7.53;2.00;;;;;;;17.83;41.29;100063.81;16117874;19;134588;-47
2023/12/11 09:02:23;;;;;;;8.45;2.58;;;;;;;17.83;40.86;100063.81;16113305;19;129860;-47
2023/12/11 09:07:45;;;;;;;10.02;2.80;;;;;;;17.82;40.97;100087.03;16114477;19;130308;-47
2023/12/11 09:13:07;;;;;;;9.50;2.40;;;;;;;17.81;41.16;100090.91;16115798;19;129608;-48
2023/12/11 09:18:29;;;;;;;8.63;2.38;;;;;;;17.80;40.95;100094.75;16117075;19;129737;-50
2023/12/11 09:23:51;;;;;;;9.93;2.38;;;;;;;17.80;40.86;100093.91;16115610;19;130728;-47
2023/12/11 09:29:13;;;;;;;8.65;2.10;;;;;;;17.79;41.33;100104.16;16113564;19;130347;-47
2023/12/11 09:34:35;;;;;;;11.90;2.35;;;;;;;17.79;40.86;100114.38;16110772;19;129912;-45
2023/12/11 09:39:57;;;;;;;8.90;2.00;;;;;;;17.77;41.01;100125.72;16108249;19;129680;-45
2023/12/11 09:45:22;;;;;;;8.70;2.33;;;;;;;17.77;40.96;100135.94;16107631;19;130350;-47
2023/12/11 09:50:45;;;;;;;6.43;1.60;;;;;;;17.75;41.28;100147.25;16109108;19;130168;-45
2023/12/11 09:56:08;;;;;;;7.97;2.08;;;;;;;17.76;40.88;100164.72;16110983;19;131177;-47
2023/12/11 10:01:30;;;;;;;5.90;2.03;;;;;;;17.75;40.94;100166.63;16106486;19;129415;-44
2023/12/11 10:06:52;;;;;;;7.03;1.90;;;;;;;17.74;41.31;100172.44;16109967;19;129452;-46
2023/12/11 10:12:14;;;;;;;5.70;1.85;;;;;;;17.74;41.30;100187.09;16110557;19;129909;-49
2023/12/11 10:17:36;;;;;;;6.63;2.00;;;;;;;17.73;40.85;100207.53;16110723;19;129599;-45
2023/12/11 10:23:09;;;;;;;8.43;1.83;;;;;;;17.71;41.05;100207.00;16110844;19;129594;-45
2023/12/11 10:28:35;;;;;;;7.60;1.90;;;;;;;17.70;41.13;100221.91;16110452;19;129315;-49
2023/12/11 10:33:57;;;;;;;7.13;2.05;;;;;;;17.70;40.83;100221.91;16109153;19;130227;-46
2023/12/11 10:39:22;;;;;;;7.50;2.00;;;;;;;17.69;41.18;100236.84;16112199;19;129672;-49
2023/12/11 10:44:49;;;;;;;5.78;1.70;;;;;;;17.67;40.81;100242.59;16105940;19;130074;-48
2023/12/11 10:50:15;;;;;;;9.88;2.20;;;;;;;17.66;41.27;100252.00;16109549;19;129997;-45
2023/12/11 10:55:37;;;;;;;7.55;1.95;;;;;;;17.65;41.04;100257.78;16110609;19;130115;-48
2023/12/11 11:01:01;;;;;;;7.10;1.77;;;;;;;17.65;41.12;100252.25;16107581;19;129506;-51
2023/12/11 11:06:25;;;;;;;7.40;2.05;;;;;;;17.63;40.88;100262.72;16103636;19;129567;-47
2023/12/11 11:11:56;;;;;;;5.60;1.80;;;;;;;17.64;40.87;100265.25;16106054;19;128991;-45
2023/12/11 11:17:18;;;;;;;6.85;2.13;;;;;;;17.63;41.02;100279.34;16123603;19;131412;-49
2023/12/11 11:22:40;;;;;;;6.55;1.95;;;;;;;17.61;40.89;100276.84;16120451;19;129655;-47
2023/12/11 11:28:02;;;;;;;5.68;1.70;;;;;;;17.62;41.21;100291.50;16120105;19;129712;-48
2023/12/11 11:33:42;;;;;;;6.70;1.90;;;;;;;17.63;40.88;100287.63;16121468;19;129604;-46
2023/12/11 11:39:06;;;;;;;7.85;1.88;;;;;;;17.61;40.92;100287.03;16114916;19;129609;-48
2023/12/11 11:44:29;;;;;;;7.35;2.00;;;;;;;17.61;40.89;100298.09;16114166;19;130219;-45
2023/12/11 11:49:51;;;;;;;6.38;1.58;;;;;;;17.60;40.89;100297.28;16114921;19;129749;-48
2023/12/11 11:55:26;;;;;;;6.78;1.83;;;;;;;17.60;40.89;100302.81;16117877;19;129472;-48
2023/12/11 12:00:49;;;;;;;3.67;1.45;;;;;;;17.58;41.08;100306.94;16120182;19;129766;-48
2023/12/11 12:06:13;;;;;;;6.10;1.42;;;;;;;17.57;41.17;100308.84;16117199;19;130215;-48
2023/12/11 12:11:35;;;;;;;5.00;1.55;;;;;;;17.57;41.30;100319.09;16120082;19;130787;-46
2023/12/11 12:16:57;;;;;;;4.63;1.65;;;;;;;17.55;41.32;100319.31;16121118;19;130290;-46
2023/12/11 12:22:22;;;;;;;5.60;1.47;;;;;;;17.54;40.96;100339.75;16115200;19;129654;-46
2023/12/11 12:27:46;;;;;;;6.85;1.73;;;;;;;17.53;41.05;100338.91;16113169;19;129662;-45
2023/12/11 12:33:11;;;;;;;5.38;1.52;;;;;;;17.53;41.00;100343.63;16109526;19;129572;-49
2023/12/11 12:38:34;;;;;;;6.28;1.45;;;;;;;17.52;41.05;100342.78;16108697;19;130661;-49
2023/12/11 12:44:00;;;;;;;4.43;1.42;;;;;;;17.53;40.93;100344.44;16109735;19;130733;-47
2023/12/11 12:49:22;;;;;;;6.70;1.80;;;;;;;17.51;41.21;100345.81;16105807;19;130653;-48
2023/12/11 12:54:48;;;;;;;5.05;1.27;;;;;;;17.52;40.93;100341.94;16105549;19;129796;-47
2023/12/11 13:00:20;;;;;;;4.38;1.25;;;;;;;17.51;41.08;100345.81;16114783;19;130780;-50
2023/12/11 13:05:45;;;;;;;4.65;1.38;;;;;;;17.50;41.31;100350.47;16111127;19;130979;-46
2023/12/11 13:11:08;;;;;;;5.30;1.70;;;;;;;17.48;40.91;100360.94;16113115;19;129893;-47
2023/12/11 13:16:30;;;;;;;5.00;1.67;;;;;;;17.48;40.95;100363.72;16112975;19;130525;-51
2023/12/11 13:21:52;;;;;;;5.15;1.50;;;;;;;17.48;41.26;100369.25;16114423;19;129354;-48
2023/12/11 13:27:15;;;;;;;5.00;1.50;;;;;;;17.47;40.96;100373.13;16111162;19;130099;-46
2023/12/11 13:32:37;;;;;;;5.60;1.25;;;;;;;17.48;41.03;100374.78;16112069;19;129646;-50
2023/12/11 13:37:58;;;;;;;4.20;1.25;;;;;;;17.47;41.11;100373.13;16110890;19;130236;-45
2023/12/11 13:43:20;;;;;;;4.30;1.17;;;;;;;17.47;41.16;100375.91;16110829;19;130087;-47
2023/12/11 13:48:43;;;;;;;3.38;1.58;;;;;;;17.46;41.04;100376.97;16106418;19;131973;-51
2023/12/11 13:54:05;;;;;;;5.00;1.40;;;;;;;17.46;41.00;100382.50;16107003;19;129855;-49
2023/12/11 13:59:28;;;;;;;4.60;1.40;;;;;;;17.46;41.27;100393.56;16106058;19;130059;-48
2023/12/11 14:04:50;;;;;;;4.85;1.10;;;;;;;17.46;41.38;100407.41;16107788;19;131304;-49
2023/12/11 14:10:12;;;;;;;4.95;1.10;;;;;;;17.46;41.37;100425.91;16106574;19;131772;-50
2023/12/11 14:15:34;;;;;;;3.45;1.27;;;;;;;17.45;41.04;100425.09;16111335;19;130403;-48
2023/12/11 14:20:56;;;;;;;4.25;1.50;;;;;;;17.44;41.46;100423.41;16110667;19;130589;-45
2023/12/11 14:26:18;;;;;;;4.00;1.08;;;;;;;17.44;41.05;100428.94;16106276;19;130964;-48
2023/12/11 14:31:40;;;;;;;3.22;1.30;;;;;;;17.43;41.48;100427.25;16109682;19;130097;-49
2023/12/11 14:37:03;;;;;;;2.42;0.85;;;;;;;17.42;41.07;100436.63;16106021;19;131290;-48
2023/12/11 14:42:28;;;;;;;3.42;1.13;;;;;;;17.41;41.15;100451.53;16107232;19;131995;-51
2023/12/11 14:47:49;;;;;;;2.65;0.90;;;;;;;17.41;41.25;100456.25;16112555;19;130090;-46
2023/12/11 14:53:11;;;;;;;4.55;1.00;;;;;;;17.39;41.07;100462.88;16118904;19;129728;-50
2023/12/11 14:58:34;;;;;;;3.97;1.30;;;;;;;17.40;41.44;100472.00;16121999;19;131790;-47
2023/12/11 15:03:56;;;;;;;2.65;0.90;;;;;;;17.39;41.02;100486.91;16123554;19;129592;-46
2023/12/11 15:09:19;;;;;;;3.35;1.13;;;;;;;17.38;41.25;100493.50;16119931;19;131247;-48
2023/12/11 15:14:41;;;;;;;3.58;1.13;;;;;;;17.38;41.09;100501.81;16124031;19;130029;-52
2023/12/11 15:20:09;;;;;;;2.20;0.90;;;;;;;17.36;41.36;100499.31;16122108;19;130459;-48
2023/12/11 15:25:32;;;;;;;3.25;0.98;;;;;;;17.36;41.10;100509.50;16120054;19;130604;-51
2023/12/11 15:30:54;;;;;;;3.35;1.17;;;;;;;17.34;41.51;100506.19;16119720;19;130030;-45
2023/12/11 15:36:34;;;;;;;4.20;1.30;;;;;;;17.35;41.36;100524.44;16120615;19;129692;-49
2023/12/11 15:41:56;;;;;;;3.10;1.08;;;;;;;17.34;41.55;100528.31;16117335;19;129439;-45
2023/12/11 15:47:18;;;;;;;3.30;1.00;;;;;;;17.34;41.51;100528.31;16115222;19;129400;-49
2023/12/11 15:52:40;;;;;;;2.80;0.90;;;;;;;17.32;41.37;100533.22;16117888;19;129607;-45
2023/12/11 15:58:03;;;;;;;2.70;1.00;;;;;;;17.34;41.32;100536.59;16113158;19;129540;-49
2023/12/11 16:03:25;;;;;;;2.13;0.80;;;;;;;17.49;41.58;100553.44;16118089;19;129604;-45
2023/12/11 16:08:47;;;;;;;3.40;0.93;;;;;;;17.93;41.26;100552.06;16111235;19;129706;-46
2023/12/11 16:14:09;;;;;;;6.80;1.13;;;;;;;18.37;40.67;100557.72;16113257;19;130331;-50
2023/12/11 16:19:31;;;;;;;3.80;0.80;;;;;;;18.80;39.68;100554.50;16119477;19;130676;-49
2023/12/11 16:24:53;;;;;;;6.47;1.17;;;;;;;19.15;39.18;100545.78;16118923;19;130773;-47
2023/12/11 16:30:15;;;;;;;8.55;1.52;;;;;;;19.41;38.71;100550.81;16116777;19;131471;-45
2023/12/11 16:35:37;;;;;;;6.45;1.23;;;;;;;19.61;38.74;100556.59;16117289;19;131182;-46
2023/12/11 16:41:00;;;;;;;9.48;1.13;;;;;;;19.78;38.38;100572.28;16112184;19;130827;-47
2023/12/11 16:46:22;;;;;;;7.68;1.40;;;;;;;19.85;37.93;100570.13;16113172;19;130304;-47
2023/12/11 16:51:44;;;;;;;3.17;0.90;;;;;;;19.93;37.78;100569.66;16112751;19;130200;-51
2023/12/11 16:57:06;;;;;;;8.10;1.30;;;;;;;19.96;37.88;100574.66;16114974;19;129935;-46
2023/12/11 17:02:28;;;;;;;6.20;1.50;;;;;;;19.94;37.84;100585.19;16114689;19;129364;-48
2023/12/11 17:07:53;;;;;;;7.53;1.42;;;;;;;19.87;38.43;100583.75;16112382;19;130558;-48
2023/12/11 17:13:15;;;;;;;22.73;2.00;;;;;;;19.72;38.21;100593.63;16109916;19;131449;-45
2023/12/11 17:18:37;;;;;;;25.05;1.80;;;;;;;19.57;38.78;100594.25;16112738;19;132218;-48
2023/12/11 17:23:59;;;;;;;15.27;1.85;;;;;;;19.43;38.97;100601.34;16112310;19;129936;-45
2023/12/11 17:29:21;;;;;;;14.85;2.72;;;;;;;19.35;39.39;100611.78;16105960;19;130117;-47
2023/12/11 17:34:43;;;;;;;13.38;2.45;;;;;;;19.33;39.65;100625.06;16110072;19;131416;-45
2023/12/11 17:40:06;;;;;;;13.48;2.90;;;;;;;19.44;39.68;100628.00;16111861;19;129643;-47
2023/12/11 17:45:28;;;;;;;12.73;2.75;;;;;;;19.71;39.32;100629.94;16107054;19;129486;-48
2023/12/11 17:50:50;;;;;;;11.93;2.15;;;;;;;20.06;39.38;100637.00;16108354;19;130182;-47
2023/12/11 17:56:15;;;;;;;9.38;1.92;;;;;;;20.41;38.63;100636.47;16110279;19;130102;-49
2023/12/11 18:01:38;;;;;;;12.57;2.37;;;;;;;20.70;38.33;100650.03;16110305;19;130001;-45
2023/12/11 18:07:01;;;;;;;11.85;2.38;;;;;;;20.94;38.15;100655.22;16110860;19;132171;-48
2023/12/11 18:12:23;;;;;;;9.48;1.70;;;;;;;21.07;37.86;100651.09;16106064;19;129346;-52
2023/12/11 18:17:45;;;;;;;13.73;2.28;;;;;;;21.12;38.08;100647.50;16107941;19;129963;-48
2023/12/11 18:23:08;;;;;;;14.48;2.50;;;;;;;21.09;38.13;100657.25;16102571;19;129551;-52
2023/12/11 18:28:30;;;;;;;23.05;2.55;;;;;;;21.01;38.49;100658.59;16109772;19;129267;-52
2023/12/11 18:33:52;;;;;;;12.20;2.00;;;;;;;20.90;38.62;100660.47;16108037;19;129415;-48
2023/12/11 18:39:15;;;;;;;13.38;2.15;;;;;;;20.76;38.78;100662.06;16106497;19;130689;-49
2023/12/11 18:44:37;;;;;;;11.10;2.40;;;;;;;20.63;38.93;100671.63;16109585;19;131174;-48
2023/12/11 18:49:59;;;;;;;15.02;2.40;;;;;;;20.52;39.35;100681.84;16097422;19;131421;-49
2023/12/11 18:55:21;;;;;;;14.13;2.20;;;;;;;20.49;39.25;100674.03;16104225;19;131042;-44
2023/12/11 19:00:43;;;;;;;12.65;2.45;;;;;;;20.56;39.46;100673.81;16102761;19;129446;-48
2023/12/11 19:06:05;;;;;;;12.02;2.25;;;;;;;20.66;39.47;100673.88;16101195;19;130560;-50
2023/12/11 19:11:27;;;;;;;16.17;2.47;;;;;;;20.71;39.42;100678.66;16104094;19;129756;-47
2023/12/11 19:16:49;;;;;;;20.90;2.78;;;;;;;20.79;39.10;100683.75;16106628;19;129411;-47
2023/12/11 19:22:11;;;;;;;24.83;2.63;;;;;;;20.87;39.29;100696.31;16104106;19;130518;-47
2023/12/11 19:27:33;;;;;;;20.45;2.83;;;;;;;20.94;39.68;100705.28;16103852;19;129434;-49
2023/12/11 19:32:55;;;;;;;29.55;2.63;;;;;;;21.00;39.82;100704.19;16102648;19;129411;-52
2023/12/11 19:38:17;;;;;;;32.75;3.00;;;;;;;21.08;39.53;100713.16;16121109;19;131111;-51
2023/12/11 19:43:39;;;;;;;25.67;3.28;;;;;;;21.12;39.85;100715.13;16117277;19;130799;-51
2023/12/11 19:49:01;;;;;;;19.65;2.22;;;;;;;21.14;39.61;100732.38;16114791;19;130082;-49
2023/12/11 19:54:23;;;;;;;20.70;2.85;;;;;;;21.14;39.68;100724.03;16117033;19;131326;-45
2023/12/11 19:59:45;;;;;;;15.93;2.65;;;;;;;21.17;39.83;100717.09;16115020;19;129806;-52
2023/12/11 20:05:07;;;;;;;19.50;2.90;;;;;;;21.18;39.88;100725.16;16110850;19;129675;-50
2023/12/11 20:10:29;;;;;;;24.38;2.88;;;;;;;21.19;40.14;100726.84;16113819;19;131337;-49
2023/12/11 20:15:52;;;;;;;17.15;2.60;;;;;;;21.21;39.93;100721.84;16114527;19;130797;-49
2023/12/11 20:21:14;;;;;;;26.08;2.83;;;;;;;21.23;40.22;100713.25;16114739;19;130865;-50
2023/12/11 20:26:36;;;;;;;35.47;2.95;;;;;;;21.27;40.25;100710.75;16117236;19;130984;-50
2023/12/11 20:31:58;;;;;;;25.42;2.92;;;;;;;21.28;39.78;100723.56;16115447;19;129671;-46
2023/12/11 20:37:20;;;;;;;25.45;2.70;;;;;;;21.30;40.25;100721.31;16119871;19;130431;-50
2023/12/11 20:42:42;;;;;;;26.38;2.70;;;;;;;21.31;40.20;100723.00;16112666;19;129788;-51
2023/12/11 20:48:04;;;;;;;15.45;2.40;;;;;;;21.32;40.27;100728.31;16108925;19;130500;-49
2023/12/11 20:53:27;;;;;;;21.42;2.75;;;;;;;21.33;40.24;100731.94;16109347;19;130609;-47
2023/12/11 20:58:50;;;;;;;20.10;2.45;;;;;;;21.35;40.10;100732.50;16113009;19;130616;-49
2023/12/11 21:04:12;;;;;;;22.90;2.22;;;;;;;21.35;40.30;100729.72;16113886;19;132155;-52
2023/12/11 21:09:35;;;;;;;23.40;2.58;;;;;;;21.32;40.35;100738.59;16112577;19;129625;-51
2023/12/11 21:14:57;;;;;;;23.55;2.35;;;;;;;21.26;40.52;100743.28;16113719;19;129916;-53
2023/12/11 21:20:19;;;;;;;28.30;2.10;;;;;;;21.15;40.62;100750.75;16107662;19;130188;-51
2023/12/11 21:25:41;;;;;;;27.45;3.55;;;;;;;21.02;41.31;100765.94;16112098;19;133813;-47
2023/12/11 21:31:04;;;;;;;32.03;3.28;;;;;;;20.90;41.50;100762.50;16103587;19;130241;-49
2023/12/11 21:36:29;;;;;;;22.70;2.55;;;;;;;20.76;41.60;100762.13;16108840;19;131504;-47
2023/12/11 21:41:51;;;;;;;30.48;3.15;;;;;;;20.66;41.65;100782.28;16109596;19;130171;-45
2023/12/11 21:47:14;;;;;;;24.98;3.08;;;;;;;20.56;42.04;100784.97;16107682;19;129648;-45
2023/12/11 21:52:36;;;;;;;32.67;2.97;;;;;;;20.46;42.47;100791.28;16109054;19;129862;-50
2023/12/11 21:57:58;;;;;;;28.65;2.90;;;;;;;20.38;42.74;100783.41;16108035;19;129715;-47
2023/12/11 22:03:20;;;;;;;14.25;2.70;;;;;;;20.32;42.18;100790.84;16109251;19;129645;-50
2023/12/11 22:08:42;;;;;;;25.33;3.03;;;;;;;20.12;41.50;100792.28;16107292;19;130581;-52
2023/12/11 22:14:04;;;;;;;24.00;2.72;;;;;;;20.02;41.78;100788.56;16106007;19;129689;-50
2023/12/11 22:19:26;;;;;;;21.45;2.60;;;;;;;19.90;41.79;100785.88;16103119;19;129970;-52
2023/12/11 22:24:48;;;;;;;22.17;2.33;;;;;;;19.82;41.78;100782.47;16105836;19;129580;-47
2023/12/11 22:30:11;;;;;;;25.02;2.40;;;;;;;19.76;41.59;100771.56;16105959;19;129622;-49
2023/12/11 22:35:33;;;;;;;17.63;2.70;;;;;;;19.67;41.75;100769.25;16109665;19;129626;-51
2023/12/11 22:40:57;;;;;;;16.85;2.17;;;;;;;19.60;41.59;100762.19;16107376;19;130563;-50
2023/12/11 22:46:19;;;;;;;17.92;3.03;;;;;;;19.52;41.43;100763.47;16109652;19;130373;-51
2023/12/11 22:51:42;;;;;;;10.88;1.70;;;;;;;19.46;41.44;100778.34;16105389;19;130685;-51
2023/12/11 22:57:04;;;;;;;11.60;2.05;;;;;;;19.41;41.84;100768.03;16106611;19;129788;-50
2023/12/11 23:02:27;;;;;;;14.38;2.03;;;;;;;19.37;41.43;100764.09;16103180;19;130129;-51
2023/12/11 23:07:53;;;;;;;18.05;2.70;;;;;;;19.33;41.56;100771.25;16108178;19;131060;-51
2023/12/11 23:13:14;;;;;;;14.48;1.95;;;;;;;19.29;41.66;100770.06;16124565;19;130150;-49
2023/12/11 23:18:37;;;;;;;14.35;1.73;;;;;;;19.24;41.33;100764.47;16122283;19;130787;-53
2023/12/11 23:23:59;;;;;;;8.10;1.67;;;;;;;19.19;41.49;100759.66;16123964;19;130911;-48
2023/12/11 23:29:20;;;;;;;16.48;2.35;;;;;;;19.16;41.40;100757.38;16118424;19;133952;-50
2023/12/11 23:34:42;;;;;;;11.05;1.08;;;;;;;19.11;41.84;100760.06;16118534;19;129407;-53
2023/12/11 23:40:05;;;;;;;13.30;1.77;;;;;;;19.09;41.36;100768.66;16118716;19;130488;-49
2023/12/11 23:45:28;;;;;;;11.77;1.40;;;;;;;19.04;41.87;100761.09;16118607;19;130762;-49
2023/12/11 23:50:50;;;;;;;9.05;1.60;;;;;;;19.01;41.38;100764.38;16115853;19;130698;-50
2023/12/11 23:56:12;;;;;;;7.63;1.63;;;;;;;18.99;41.74;100757.41;16116937;19;129286;-52
